Aviation Digital Data Service (ADDS)

Output produced by METARs form (1840 UTC 18 June 2019)
found at http://www.aviationweather.gov/metar/data/
 
KBXK 181815Z AUTO 16005KT 10SM CLR 34/M04 A2991 RMK AO1
KIFP 181750Z 25004KT 10SM SKC 36/05 A2985
KIFP 181723Z 1818/1918 19010KT P6SM FEW250
       
KCGZ 181756Z AUTO VRB04KT 10SM CLR 33/02 A2993 RMK AO2 SLP116 6//// T03330017 10333 20211 51002
KCHD 181747Z 23007KT 10SM CLR 34/02 A2990
KAZC 181835Z AUTO 00000KT 10SM CLR 26/05 A3015 RMK AO2 LTG DSNT NE
KP08 181815Z AUTO 29008KT 10SM CLR 34/03 A2992 RMK AO2
KDUG 181756Z AUTO 17016G23KT 10SM CLR 31/M02 A3009 RMK AO2 SLP114 T03111022 10311 20122 56003
KDUG 181720Z 1818/1918 18014G22KT P6SM SKC 
     FM190300 25010KT P6SM SKC 
     FM190700 32006KT P6SM SKC
       
KFLG 181757Z VRB05KT 10SM CLR 22/M02 A3026 RMK AO2 SLP152 T02221017 10228 20056 53002
KFLG 181720Z 1818/1918 21012G22KT P6SM SCT100 SCT200 
     FM190200 VRB03KT P6SM FEW200
       
KFHU 181758Z AUTO 15005KT 10SM CLR 31/M10 A3012 RMK AO2 SLP117 T03051100 10310 20175 57002
TAF KFHU 181806Z 1818/1924 22012G18KT 9999 SKC QNH3007INS 
     BECMG 1820/1821 22015G25KT 9999 SKC 510009 QNH3006INS 
     BECMG 1901/1902 22012KT 9999 SKC QNH3005INS 
     TEMPO 1904/1907 24016G22KT 
     BECMG 1908/1909 VRB06KT 9999 SKC QNH3008INS 
     BECMG 1920/1921 27009KT 9999 SKC QNH3003INS TX33/1822Z TN14/1912Z
       
KGYR 181747Z VRB03KT 10SM FEW250 33/02 A2989
KGCN 181754Z 30005G15KT 10SM CLR 24/M01 A3023 RMK AO2 SLP152 T02391006 10244 20033 52004
KGCN 181720Z 1818/1918 24010G18KT P6SM BKN090 
     FM190200 VRB03KT P6SM FEW200
       
KIGM 181751Z AUTO 24011KT 10SM CLR 32/02 A3003 RMK AO2 SLP093 T03220017 10322 20161 51006 $
KHII 181815Z AUTO 19009G14KT 10SM CLR 36/04 A2986 RMK AO2
KFFZ 181754Z 23007KT 10SM CLR 34/02 A2991 RMK AO2 SLP102 T03390017 10339 20256 51004
KOLS 181754Z AUTO 18016G22KT 10SM CLR 31/M06 A3008 RMK AO2 PK WND 21026/1707 SLP108 T03111056 10322 20150 53003
KOLS 181720Z 1818/1918 19012G20KT P6SM SKC 
     FM190400 VRB03KT P6SM SKC
       
KPGA 181753Z AUTO VRB04KT 10SM CLR 27/07 A3008 RMK AO2 SLP122 T02670067 10267 20178 50000 TSNO
KPGA 181720Z 1818/1918 VRB06KT P6SM SCT100 SCT150
       
KPAN 181835Z AUTO 00000G11KT 10SM CLR 27/00 A3016 RMK AO2
KGEU 181747Z 004004KT 10SM SKC 34/00 A2991
KDVT 181753Z 19008KT 150V220 10SM CLR 33/01 A2992 RMK AO2 SLP103 T03330011 10333 20233 53004
KDVT 181720Z 1818/1918 17008KT P6SM SKC 
     FM182100 23010KT P6SM SKC 
     FM190400 VRB03KT P6SM SKC
       
KA39 181835Z AUTO 19009G15KT 10SM CLR 36/M02 A2994 RMK AO2
KPHX 181751Z VRB03KT 10SM FEW250 34/01 A2989 RMK AO2 SLP098 T03440011 10344 20261 51003
KPHX 181720Z 1818/1924 18006KT P6SM SKC 
     FM182000 22007KT P6SM SKC 
     FM190000 27010G17KT P6SM SKC 
     FM190500 26008KT P6SM SKC 
     FM190800 10005KT P6SM SKC
       
KIWA 181755Z 28007KT 10SM FEW250 34/03 A2992
KIWA 181720Z 1818/1918 25009KT P6SM SKC 
     FM190700 12006KT P6SM SKC 
     FM191700 24005KT P6SM SKC
       
KPRC 181753Z 10010G17KT 10SM CLR 28/M01 A3012 RMK AO2 SLP116 T02781006 10283 20128 50000
KPRC 181720Z 1818/1918 15008KT P6SM FEW100 
     FM181900 20010G20KT P6SM FEW100 
     FM190200 20006KT P6SM FEW250
       
KSAD 181751Z AUTO VRB05KT 10SM CLR 33/00 A2998 RMK AO2 SLP094 T03330000 10333 20189 57005
KSJN 181754Z AUTO VRB04KT 10SM CLR 27/M02 A3016 RMK AO2 SLP120 T02671022 10272 20083 58002
KSDL 181753Z 20005KT 10SM CLR 33/00 A2993 RMK AO2 SLP106 T03280000 10333 20256 52005
KSDL 181720Z 1818/1918 VRB05KT P6SM SKC 
     FM182000 22008KT P6SM SKC 
     FM190300 VRB03KT P6SM SKC
       
KSEZ 181615Z AUTO 16004KT 10SM CLR 27/01 A3013 RMK AO2
KSEZ 181720Z 1818/1918 VRB05KT P6SM SKC 
     FM181900 20010G20KT P6SM FEW110 
     FM190200 VRB06KT P6SM FEW250
       
KSOW 181835Z AUTO 24014KT 10SM CLR 26/M02 A3022 RMK AO2
KTYL 181835Z AUTO 32006KT 10SM CLR 28/M02 A3017 RMK AO2
KAVQ 181835Z AUTO 20008KT 10SM CLR 34/M02 A2993 RMK AO2 T03401017
KRYN 181745Z 19004KT 10SM CLR 33/M08 A2998
KTUS 181753Z 18009KT 10SM CLR 34/M08 A3000 RMK AO2 SLP103 T03391078 10339 20206 51001
KTUS 181720Z 1818/1918 20008KT P6SM SKC 
     FM182000 22009G18KT P6SM SKC 
     FM190300 28006KT P6SM SKC 
     FM190700 19006KT P6SM SKC
       
KCMR 181835Z AUTO 24003G16KT 10SM CLR 24/M04 A3024 RMK AO2
KRQE 181753Z AUTO VRB03G18KT 10SM CLR 25/M03 A3021 RMK AO2 SLP121 T02501028 10256 20050 55004
KINW 181756Z AUTO VRB03KT 10SM CLR 30/03 A3011 RMK AO2 SLP114 T03000028 10300 20111 58006
KINW 181720Z 1818/1918 22009KT P6SM FEW250 
     FM182100 23012G22KT P6SM SCT130 SCT250 
     FM190200 23007KT P6SM FEW250
       
KNYL 181757Z VRB03KT 7SM FEW200 34/03 A2984 RMK AO2 SLP100 T03440033 10344 20233 51006 $
TAF KNYL 1815/1915 14008KT 9999 FEW200 QNH2972INS 
     TEMPO 1820/1902 18010G15KT 
     BECMG 1904/1906 16006KT 9999 SKC QNH2974INS T38/1822Z T23/1912Z